This is the latest recevied weather packets stored in our database for station/object SV4JYD-14. If no packets are shown the sender has not sent any weather packets the latest 1 day(s).
| Time | Temp. | Humidity | Pressure | Rain* | Wind** | Luminosity | Snow |
|---|---|---|---|---|---|---|---|
| 1777966297 | 15.56° C | 67% | 1017 hPa | 0 mm | 1.79 m/s, 360° | - | - |
| 1777965397 | 16.11° C | 66% | 1017 hPa | 0 mm | 1.79 m/s, 360° | - | - |
| 1777964496 | 16.11° C | 66% | 1017 hPa | 0 mm | 1.79 m/s, 340° | - | - |
| 1777963596 | 16.11° C | 68% | 1017 hPa | 0 mm | 1.79 m/s, 340° | - | - |
| 1777962696 | 15.56° C | 67% | 1017 hPa | 0 mm | 1.34 m/s, 0° | - | - |
| 1777961796 | 15.56° C | 68% | 1017 hPa | 0 mm | 1.34 m/s, 0° | - | - |
| 1777960896 | 15° C | 68% | 1017 hPa | 0 mm | 1.34 m/s, 0° | - | - |
| 1777959995 | 15° C | 68% | 1017 hPa | 0 mm | 1.34 m/s, 0° | - | - |
| 1777959095 | 14.44° C | 69% | 1017 hPa | 0 mm | 2.24 m/s, 330° | - | - |
| 1777958195 | 13.89° C | 71% | 1017 hPa | 0 mm | 2.24 m/s, 330° | - | - |
| 1777957295 | 12.78° C | 73% | 1017 hPa | 0 mm | 1.79 m/s, 260° | - | - |
| 1777956394 | 11.67° C | 76% | 1017 hPa | 0 mm | 1.79 m/s, 260° | - | - |
| 1777955494 | 11.11° C | 76% | 1017 hPa | 0 mm | 2.24 m/s, 240° | - | - |
| 1777954594 | 10.56° C | 76% | 1017 hPa | 0 mm | 2.24 m/s, 240° | - | - |
| 1777953694 | 10° C | 75% | 1017 hPa | 0 mm | 1.79 m/s, 230° | - | - |
| 1777952793 | 10° C | 75% | 1017 hPa | 0 mm | 1.79 m/s, 230° | - | - |
| 1777951893 | 10° C | 74% | 1017 hPa | 0 mm | 1.79 m/s, 230° | - | - |
| 1777950993 | 10° C | 73% | 1017 hPa | 0 mm | 1.79 m/s, 230° | - | - |
| 1777950093 | 10° C | 71% | 1016 hPa | 0 mm | 2.68 m/s, 326° | - | - |
| 1777949192 | 10° C | 70% | 1016 hPa | 0 mm | 1.79 m/s, 230° | - | - |
* Rain latest hour (hover to see other rain measurements)
** Current wind speed in m/s (hover to see current wind gust speed)